createdAt,value
2018-07-25T00:00:52.365Z,3.20
2018-07-25T00:02:54.906Z,4.20
2018-07-25T00:04:57.126Z,3.10
2018-07-25T00:06:59.345Z,2.93
2018-07-25T00:09:02.603Z,3.30
2018-07-25T00:11:05.320Z,3.10
2018-07-25T00:13:07.671Z,3.17
2018-07-25T00:15:10.559Z,3.10
2018-07-25T00:17:12.745Z,3.07
2018-07-25T00:19:14.933Z,3.27
2018-07-25T00:21:17.172Z,3.00
2018-07-25T00:23:19.370Z,2.87
2018-07-25T00:25:22.160Z,3.10
2018-07-25T00:27:24.369Z,3.20
2018-07-25T00:29:26.581Z,3.00
2018-07-25T00:31:28.776Z,3.10
2018-07-25T00:33:30.982Z,2.90
2018-07-25T00:35:33.138Z,2.87
2018-07-25T00:37:35.315Z,3.20
2018-07-25T00:39:37.516Z,3.07
2018-07-25T00:41:39.701Z,3.30
2018-07-25T00:43:42.513Z,2.90
2018-07-25T00:45:44.781Z,3.20
2018-07-25T00:47:47.306Z,3.10
2018-07-25T00:49:49.521Z,3.00
2018-07-25T00:51:51.786Z,2.90
2018-07-25T00:53:53.977Z,3.00
2018-07-25T00:55:56.174Z,2.90
2018-07-25T00:57:58.421Z,3.40
2018-07-25T01:00:00.602Z,3.20
2018-07-25T01:02:02.836Z,3.80
2018-07-25T01:04:05.937Z,2.90
2018-07-25T01:06:08.107Z,3.00
2018-07-25T01:08:10.301Z,3.00
2018-07-25T01:10:13.538Z,3.07
2018-07-25T01:12:17.230Z,3.10
2018-07-25T01:14:20.895Z,3.10
2018-07-25T01:16:23.162Z,3.13
2018-07-25T01:18:25.354Z,3.30
2018-07-25T01:20:27.545Z,3.20
2018-07-25T01:22:29.770Z,3.20
2018-07-25T01:24:31.957Z,3.10
2018-07-25T01:26:34.180Z,3.23
2018-07-25T01:28:36.424Z,3.27
2018-07-25T01:30:38.573Z,3.60
2018-07-25T01:32:40.757Z,3.00
2018-07-25T01:34:42.962Z,3.50
2018-07-25T01:36:45.146Z,3.20
2018-07-25T01:38:47.342Z,3.27
2018-07-25T01:40:49.639Z,3.30
2018-07-25T01:42:51.866Z,2.93
2018-07-25T01:44:54.079Z,3.30
2018-07-25T01:46:56.290Z,3.20
2018-07-25T01:48:58.555Z,3.10
2018-07-25T01:51:00.722Z,3.30
2018-07-25T01:53:02.970Z,3.60
2018-07-25T01:55:05.675Z,3.63
2018-07-25T01:57:07.913Z,3.60
2018-07-25T01:59:10.257Z,3.10
2018-07-25T02:01:12.518Z,3.33
2018-07-25T02:03:14.972Z,3.47
2018-07-25T02:05:17.216Z,3.40
2018-07-25T02:07:19.486Z,3.83
2018-07-25T02:09:21.681Z,3.30
2018-07-25T02:11:23.868Z,3.17
2018-07-25T02:13:26.111Z,3.30
2018-07-25T02:15:28.306Z,3.33
2018-07-25T02:17:30.547Z,3.63
2018-07-25T02:19:32.765Z,3.50
2018-07-25T02:21:34.936Z,3.27
2018-07-25T02:23:37.121Z,3.10
2018-07-25T02:25:39.350Z,3.00
2018-07-25T02:27:41.516Z,3.40
2018-07-25T02:29:43.747Z,3.20
2018-07-25T02:31:45.979Z,3.30
2018-07-25T02:33:53.739Z,3.03
2018-07-25T02:35:55.929Z,4.40
2018-07-25T02:37:58.080Z,3.30
2018-07-25T02:40:00.310Z,3.07
2018-07-25T02:42:02.546Z,3.27
2018-07-25T02:44:04.750Z,3.23
2018-07-25T02:46:06.938Z,3.40
2018-07-25T02:48:09.145Z,3.73
2018-07-25T02:50:11.361Z,3.43
2018-07-25T02:52:13.609Z,3.37
2018-07-25T02:54:15.845Z,2.90
2018-07-25T02:56:18.049Z,3.07
2018-07-25T02:58:20.252Z,3.50
2018-07-25T03:00:22.459Z,3.30
2018-07-25T03:02:24.634Z,3.17
2018-07-25T03:04:26.808Z,3.50
2018-07-25T03:06:29.022Z,3.60
2018-07-25T03:08:31.189Z,4.40
2018-07-25T03:10:33.374Z,3.40
2018-07-25T03:12:35.618Z,3.20
2018-07-25T03:14:37.827Z,3.20
2018-07-25T03:16:40.138Z,3.30
2018-07-25T03:18:42.363Z,3.40
2018-07-25T03:20:44.738Z,3.57
2018-07-25T03:22:46.915Z,3.57
2018-07-25T03:24:49.100Z,3.43
2018-07-25T03:26:51.282Z,3.57
2018-07-25T03:28:53.447Z,3.43
2018-07-25T03:30:55.714Z,3.10
2018-07-25T03:32:57.878Z,3.50
2018-07-25T03:35:00.069Z,3.50
2018-07-25T03:37:02.290Z,4.13
2018-07-25T03:39:05.906Z,3.20
2018-07-25T03:41:08.151Z,3.43
2018-07-25T03:43:10.413Z,3.53
2018-07-25T03:45:12.653Z,3.30
2018-07-25T03:47:14.823Z,3.40
2018-07-25T03:49:17.035Z,2.97
2018-07-25T03:51:19.265Z,3.43
2018-07-25T03:53:21.419Z,3.43
2018-07-25T03:55:23.599Z,3.70
2018-07-25T03:57:25.804Z,3.27
2018-07-25T03:59:27.992Z,3.30
2018-07-25T04:01:30.191Z,3.30
2018-07-25T04:03:32.384Z,3.40
2018-07-25T04:05:34.647Z,3.23
2018-07-25T04:07:36.855Z,3.70
2018-07-25T04:09:39.049Z,4.00
2018-07-25T04:11:41.322Z,3.23
2018-07-25T04:13:43.723Z,3.10
2018-07-25T04:15:46.063Z,3.60
2018-07-25T04:17:48.958Z,3.70
2018-07-25T04:19:51.125Z,4.27
2018-07-25T04:21:53.299Z,3.67
2018-07-25T04:23:55.511Z,3.73
2018-07-25T04:25:57.764Z,3.40
2018-07-25T04:27:59.885Z,3.67
2018-07-25T04:30:02.056Z,3.60
2018-07-25T04:32:04.254Z,3.40
2018-07-25T04:34:06.607Z,4.00
2018-07-25T04:36:08.811Z,3.30
2018-07-25T04:38:11.045Z,3.60
2018-07-25T04:40:13.249Z,3.43
2018-07-25T04:42:15.442Z,3.63
2018-07-25T04:44:17.663Z,3.57
2018-07-25T04:46:19.868Z,3.70
2018-07-25T04:48:21.985Z,3.63
2018-07-25T04:50:24.200Z,3.70
2018-07-25T04:52:26.466Z,3.40
2018-07-25T04:54:28.667Z,3.50
2018-07-25T04:58:39.479Z,3.43
2018-07-25T05:00:41.725Z,3.53
2018-07-25T05:02:43.947Z,3.23
2018-07-25T05:04:46.123Z,3.90
2018-07-25T05:06:48.345Z,3.60
2018-07-25T05:08:50.533Z,3.47
2018-07-25T05:10:52.737Z,3.67
2018-07-25T05:12:54.942Z,3.40
2018-07-25T05:14:57.170Z,3.07
2018-07-25T05:16:59.412Z,3.90
2018-07-25T05:19:01.681Z,3.50
2018-07-25T05:21:03.883Z,3.40
2018-07-25T05:23:06.102Z,3.60
2018-07-25T05:25:08.250Z,3.33
2018-07-25T05:27:10.462Z,3.60
2018-07-25T05:29:12.845Z,3.20
2018-07-25T05:33:23.694Z,3.87
2018-07-25T05:35:25.890Z,3.67
2018-07-25T05:37:28.125Z,3.63
2018-07-25T05:39:30.383Z,3.30
2018-07-25T05:41:32.632Z,3.30
2018-07-25T05:43:34.835Z,3.53
2018-07-25T05:45:37.017Z,3.60
2018-07-25T05:47:39.197Z,3.53
2018-07-25T05:49:41.382Z,3.70
2018-07-25T05:51:43.576Z,3.57
2018-07-25T05:53:46.817Z,3.50
2018-07-25T05:55:49.046Z,3.33
2018-07-25T05:57:51.248Z,3.20
2018-07-25T05:59:53.637Z,3.50
2018-07-25T06:01:55.869Z,3.40
2018-07-25T06:03:58.683Z,3.50
2018-07-25T06:06:01.510Z,4.47
2018-07-25T06:08:03.723Z,4.47
2018-07-25T06:10:05.990Z,4.50
2018-07-25T06:12:08.159Z,4.40
2018-07-25T06:14:10.392Z,4.67
2018-07-25T06:16:12.573Z,5.20
2018-07-25T06:18:14.774Z,5.27
2018-07-25T06:20:16.961Z,5.10
2018-07-25T06:22:19.292Z,5.53
2018-07-25T06:24:21.459Z,5.27
2018-07-25T06:26:23.662Z,5.77
2018-07-25T06:28:25.859Z,5.67
2018-07-25T06:30:28.058Z,4.90
2018-07-25T06:32:30.252Z,4.53
2018-07-25T06:34:32.441Z,5.23
2018-07-25T06:36:34.655Z,4.53
2018-07-25T06:38:36.853Z,5.27
2018-07-25T06:40:39.057Z,5.17
2018-07-25T06:42:41.284Z,4.97
2018-07-25T06:44:43.502Z,5.00
2018-07-25T06:46:45.682Z,4.77
2018-07-25T06:48:47.883Z,4.70
2018-07-25T06:50:50.091Z,4.63
2018-07-25T06:52:52.266Z,5.20
2018-07-25T06:54:54.496Z,4.83
2018-07-25T06:56:56.706Z,4.93
2018-07-25T06:58:59.160Z,5.20
2018-07-25T07:01:01.406Z,4.70
2018-07-25T07:03:03.610Z,4.70
2018-07-25T07:05:06.044Z,5.00
2018-07-25T07:07:08.228Z,4.50
2018-07-25T07:09:11.823Z,4.70
2018-07-25T07:11:14.091Z,4.70
2018-07-25T07:13:16.336Z,4.40
2018-07-25T07:15:18.577Z,4.90
2018-07-25T07:17:20.802Z,4.97
2018-07-25T07:19:23.012Z,4.67
2018-07-25T07:21:25.213Z,4.73
2018-07-25T07:23:27.458Z,4.83
2018-07-25T07:25:29.658Z,4.60
2018-07-25T07:27:31.957Z,4.57
2018-07-25T07:29:34.177Z,4.57
2018-07-25T07:31:36.344Z,4.43
2018-07-25T07:33:38.594Z,4.43
2018-07-25T07:35:40.829Z,4.50
2018-07-25T07:37:43.073Z,4.50
2018-07-25T07:39:45.278Z,4.37
2018-07-25T07:41:47.533Z,4.97
2018-07-25T07:43:49.730Z,4.97
2018-07-25T07:45:54.963Z,4.83
2018-07-25T07:47:57.682Z,4.63
2018-07-25T07:49:59.900Z,4.40
2018-07-25T07:52:02.114Z,4.70
2018-07-25T07:54:04.381Z,5.10
2018-07-25T07:56:06.651Z,4.77
2018-07-25T07:58:08.895Z,4.37
2018-07-25T08:00:11.137Z,4.97
2018-07-25T08:02:25.252Z,4.60
2018-07-25T08:04:27.689Z,4.83
2018-07-25T08:06:30.058Z,4.67
2018-07-25T08:08:32.261Z,4.03
2018-07-25T08:10:35.072Z,4.23
2018-07-25T08:12:37.283Z,4.13
2018-07-25T08:14:39.481Z,3.93
2018-07-25T08:16:41.668Z,4.50
2018-07-25T08:18:43.895Z,4.20
2018-07-25T08:20:46.252Z,4.10
2018-07-25T08:22:48.453Z,3.97
2018-07-25T08:24:50.659Z,4.20
2018-07-25T08:26:52.823Z,4.53
2018-07-25T08:28:55.021Z,4.03
2018-07-25T08:30:57.310Z,4.00
2018-07-25T08:32:59.482Z,3.77
2018-07-25T08:35:01.713Z,4.00
2018-07-25T08:37:03.961Z,4.20
2018-07-25T08:39:07.078Z,4.20
2018-07-25T08:41:09.333Z,3.90
2018-07-25T08:43:11.562Z,4.17
2018-07-25T08:45:13.728Z,4.03
2018-07-25T08:47:15.910Z,3.73
2018-07-25T08:49:18.179Z,3.47
2018-07-25T08:51:20.402Z,3.70
2018-07-25T08:53:22.689Z,4.07
2018-07-25T08:55:24.914Z,3.90
2018-07-25T08:57:27.686Z,4.00
2018-07-25T08:59:30.005Z,4.53
2018-07-25T09:01:32.197Z,3.80
2018-07-25T09:03:34.368Z,3.90
2018-07-25T09:05:36.578Z,4.10
2018-07-25T09:07:38.873Z,3.80
2018-07-25T09:09:41.049Z,3.60
2018-07-25T09:11:43.193Z,3.90
2018-07-25T09:13:45.422Z,3.83
2018-07-25T09:15:47.635Z,3.43
2018-07-25T09:17:49.890Z,4.00
2018-07-25T09:19:52.130Z,3.77
2018-07-25T09:21:54.358Z,3.70
2018-07-25T09:23:56.622Z,3.50
2018-07-25T09:25:58.818Z,3.60
2018-07-25T09:28:01.147Z,3.60
2018-07-25T09:30:03.556Z,3.80
2018-07-25T09:32:05.801Z,3.80
2018-07-25T09:34:08.129Z,3.60
2018-07-25T09:36:10.327Z,4.30
2018-07-25T09:38:12.677Z,4.23
2018-07-25T09:40:15.329Z,3.80
2018-07-25T09:42:17.594Z,3.53
2018-07-25T09:44:20.130Z,3.83
2018-07-25T09:46:22.372Z,3.87
2018-07-25T09:48:24.979Z,4.20
2018-07-25T09:50:27.273Z,3.70
2018-07-25T09:52:29.455Z,3.80
2018-07-25T09:54:31.654Z,4.03
2018-07-25T09:56:33.908Z,4.03
2018-07-25T09:58:36.164Z,4.00
2018-07-25T10:00:43.971Z,3.93
2018-07-25T10:02:46.166Z,4.30
2018-07-25T10:04:48.343Z,4.03
2018-07-25T10:06:50.562Z,3.70
2018-07-25T10:08:52.807Z,4.30
2018-07-25T10:10:55.094Z,3.93
2018-07-25T10:12:57.400Z,4.20
2018-07-25T10:15:00.095Z,4.37
2018-07-25T10:17:02.337Z,4.13
2018-07-25T10:19:04.648Z,4.10
2018-07-25T10:21:06.941Z,4.03
2018-07-25T10:23:09.438Z,3.93
2018-07-25T10:25:11.690Z,4.40
2018-07-25T10:27:14.442Z,4.07
2018-07-25T10:29:16.718Z,5.00
2018-07-25T10:31:18.922Z,4.10
2018-07-25T10:33:21.163Z,4.73
2018-07-25T10:35:23.539Z,4.57
2018-07-25T10:37:25.783Z,4.40
2018-07-25T10:39:28.524Z,4.53
2018-07-25T10:41:30.788Z,4.70
2018-07-25T10:43:33.366Z,4.47
2018-07-25T10:45:35.624Z,4.27
2018-07-25T10:47:37.822Z,4.50
2018-07-25T10:49:40.015Z,4.53
2018-07-25T10:51:42.241Z,4.80
2018-07-25T10:53:44.431Z,4.73
2018-07-25T10:55:46.649Z,4.60
2018-07-25T10:57:48.845Z,4.70
2018-07-25T10:59:51.018Z,4.40
2018-07-25T11:01:53.302Z,4.77
2018-07-25T11:03:55.855Z,4.17
2018-07-25T11:05:58.039Z,4.60
2018-07-25T11:08:00.325Z,4.60
2018-07-25T11:10:02.574Z,4.50
2018-07-25T11:12:04.754Z,4.10
2018-07-25T11:14:06.942Z,5.03
2018-07-25T11:16:09.165Z,4.80
2018-07-25T11:18:11.330Z,4.73
2018-07-25T11:20:13.790Z,4.47
2018-07-25T11:22:16.634Z,4.40
2018-07-25T11:24:18.823Z,4.43
2018-07-25T11:26:21.124Z,4.77
2018-07-25T11:28:23.359Z,4.17
2018-07-25T11:30:25.621Z,4.37
2018-07-25T11:32:27.875Z,4.17
2018-07-25T11:34:30.131Z,4.23
2018-07-25T11:36:32.361Z,4.43
2018-07-25T11:38:34.536Z,4.13
2018-07-25T11:40:36.788Z,4.43
2018-07-25T11:42:39.843Z,4.10
2018-07-25T11:44:42.087Z,4.00
2018-07-25T11:46:45.317Z,4.43
2018-07-25T11:48:47.713Z,4.27
2018-07-25T11:50:50.011Z,3.90
2018-07-25T11:52:52.262Z,4.07
2018-07-25T11:54:54.712Z,4.07
2018-07-25T11:56:57.039Z,4.50
2018-07-25T11:58:59.738Z,4.07
2018-07-25T12:01:01.911Z,4.30
2018-07-25T12:03:04.196Z,4.43
2018-07-25T12:05:06.468Z,4.00
2018-07-25T12:07:08.735Z,4.10
2018-07-25T12:09:11.638Z,4.00
2018-07-25T12:11:13.857Z,3.80
2018-07-25T12:13:16.078Z,3.50
2018-07-25T12:15:18.256Z,4.10
2018-07-25T12:17:20.509Z,4.20
2018-07-25T12:19:22.711Z,3.90
2018-07-25T12:21:24.947Z,3.90
2018-07-25T12:23:27.206Z,3.80
2018-07-25T12:25:29.423Z,4.20
2018-07-25T12:27:31.622Z,3.87
2018-07-25T12:29:33.853Z,4.20
2018-07-25T12:31:36.041Z,3.60
2018-07-25T12:33:38.242Z,4.03
2018-07-25T12:35:40.462Z,3.97
2018-07-25T12:37:42.676Z,4.03
2018-07-25T12:39:47.057Z,3.90
2018-07-25T12:41:49.307Z,3.90
2018-07-25T12:43:51.514Z,4.07
2018-07-25T12:45:53.701Z,3.60
2018-07-25T12:47:56.131Z,4.00
2018-07-25T12:49:58.512Z,3.83
2018-07-25T12:52:00.755Z,3.50
2018-07-25T12:54:03.383Z,3.77
2018-07-25T12:56:05.593Z,3.60
2018-07-25T12:58:07.785Z,4.30
2018-07-25T13:00:10.128Z,4.20
2018-07-25T13:02:12.403Z,3.67
2018-07-25T13:04:14.717Z,3.90
2018-07-25T13:06:17.790Z,3.77
2018-07-25T13:08:20.056Z,3.60
2018-07-25T13:10:22.306Z,4.60
2018-07-25T13:12:24.558Z,3.97
2018-07-25T13:14:26.762Z,3.77
2018-07-25T13:16:28.999Z,4.03
2018-07-25T13:18:31.329Z,4.40
2018-07-25T13:20:33.634Z,3.80
2018-07-25T13:22:35.893Z,4.40
2018-07-25T13:24:38.096Z,4.40
2018-07-25T13:26:40.366Z,4.80
2018-07-25T13:28:42.582Z,3.60
2018-07-25T13:30:44.806Z,4.10
2018-07-25T13:32:47.025Z,4.07
2018-07-25T13:34:49.279Z,4.27
2018-07-25T13:36:51.604Z,3.80
2018-07-25T13:38:53.823Z,4.20
2018-07-25T13:40:56.150Z,4.23
2018-07-25T13:42:58.953Z,3.90
2018-07-25T13:45:01.992Z,3.90
2018-07-25T13:47:04.393Z,4.00
2018-07-25T13:49:06.726Z,3.60
2018-07-25T13:51:09.102Z,3.13
2018-07-25T13:53:11.404Z,3.50
2018-07-25T13:55:13.632Z,3.50
2018-07-25T13:57:15.855Z,3.53
2018-07-25T13:59:18.057Z,3.60
2018-07-25T14:01:20.305Z,3.67
2018-07-25T14:03:22.618Z,3.23
2018-07-25T14:05:24.927Z,3.80
2018-07-25T14:07:27.199Z,3.17
2018-07-25T14:09:29.430Z,3.50
2018-07-25T14:11:32.964Z,3.27
2018-07-25T14:13:35.379Z,3.07
2018-07-25T14:15:37.750Z,3.20
2018-07-25T14:17:40.840Z,2.90
2018-07-25T14:19:43.951Z,3.37
2018-07-25T14:21:46.157Z,3.60
2018-07-25T14:23:48.782Z,3.23
2018-07-25T14:25:50.902Z,2.93
2018-07-25T14:27:53.160Z,3.13
2018-07-25T14:29:55.431Z,3.57
2018-07-25T14:31:57.694Z,3.53
2018-07-25T14:33:59.968Z,3.50
2018-07-25T14:36:03.527Z,3.27
2018-07-25T14:38:06.080Z,3.40
2018-07-25T14:40:08.456Z,3.33
2018-07-25T14:42:10.929Z,3.50
2018-07-25T14:44:15.194Z,3.37
2018-07-25T14:46:17.817Z,3.53
2018-07-25T14:48:20.053Z,3.80
2018-07-25T14:50:22.641Z,3.70
2018-07-25T14:52:24.909Z,3.20
2018-07-25T14:54:27.216Z,3.77
2018-07-25T14:56:30.450Z,3.47
2018-07-25T14:58:32.714Z,3.23
2018-07-25T15:00:34.915Z,3.23
2018-07-25T15:02:37.188Z,3.20
2018-07-25T15:04:39.344Z,3.73
2018-07-25T15:06:41.575Z,3.50
2018-07-25T15:08:43.894Z,3.40
2018-07-25T15:10:46.106Z,3.67
2018-07-25T15:12:53.717Z,3.97
2018-07-25T15:14:55.913Z,4.87
2018-07-25T15:16:58.173Z,3.97
2018-07-25T15:19:00.427Z,4.30
2018-07-25T15:21:02.688Z,4.73
2018-07-25T15:23:04.961Z,4.70
2018-07-25T15:25:07.437Z,5.50
2018-07-25T15:27:09.685Z,4.93
2018-07-25T15:29:11.947Z,4.20
2018-07-25T15:31:14.166Z,4.40
2018-07-25T15:33:17.439Z,3.70
2018-07-25T15:35:19.712Z,3.70
2018-07-25T15:37:21.953Z,4.30
2018-07-25T15:39:25.201Z,4.50
2018-07-25T15:41:27.542Z,4.30
2018-07-25T15:43:29.723Z,3.60
2018-07-25T15:45:31.964Z,3.60
2018-07-25T15:47:34.359Z,3.40
2018-07-25T15:49:36.395Z,3.20
2018-07-25T15:51:39.190Z,2.87
2018-07-25T15:53:41.374Z,2.87
2018-07-25T15:55:43.579Z,2.90
2018-07-25T15:57:45.807Z,2.90
2018-07-25T15:59:48.301Z,2.93
2018-07-25T16:01:50.721Z,2.70
2018-07-25T16:03:53.362Z,3.20
2018-07-25T16:05:55.619Z,3.20
2018-07-25T16:07:58.598Z,3.00
2018-07-25T16:10:00.877Z,4.43
2018-07-25T16:12:03.091Z,3.50
2018-07-25T16:14:08.519Z,3.20
2018-07-25T16:16:22.724Z,3.10
2018-07-25T16:21:08.932Z,2.90
2018-07-25T16:23:11.370Z,3.23
